sensor_id;sensor_type;location;lat;lon;timestamp;P1;durP1;ratioP1;P2;durP2;ratioP2
12519;SDS011;6325;49.540;8.364;2023-03-23T00:01:24;1.07;;;1.07;;
12519;SDS011;6325;49.540;8.364;2023-03-23T00:03:55;1.08;;;1.08;;
12519;SDS011;6325;49.540;8.364;2023-03-23T00:06:25;1.30;;;1.20;;
12519;SDS011;6325;49.540;8.364;2023-03-23T00:08:53;1.20;;;1.10;;
12519;SDS011;6325;49.540;8.364;2023-03-23T00:11:25;1.47;;;1.37;;
12519;SDS011;6325;49.540;8.364;2023-03-23T00:13:55;1.42;;;1.33;;
12519;SDS011;6325;49.540;8.364;2023-03-23T00:16:27;1.50;;;1.40;;
12519;SDS011;6325;49.540;8.364;2023-03-23T00:18:57;1.50;;;1.40;;
12519;SDS011;6325;49.540;8.364;2023-03-23T00:21:26;1.00;;;1.00;;
12519;SDS011;6325;49.540;8.364;2023-03-23T00:24:00;1.00;;;1.00;;
12519;SDS011;6325;49.540;8.364;2023-03-23T00:26:28;1.20;;;1.10;;
12519;SDS011;6325;49.540;8.364;2023-03-23T00:28:58;0.90;;;0.90;;
12519;SDS011;6325;49.540;8.364;2023-03-23T00:31:26;0.90;;;0.90;;
12519;SDS011;6325;49.540;8.364;2023-03-23T00:33:56;0.82;;;0.82;;
12519;SDS011;6325;49.540;8.364;2023-03-23T00:36:23;1.00;;;1.00;;
12519;SDS011;6325;49.540;8.364;2023-03-23T00:38:51;0.90;;;0.90;;
12519;SDS011;6325;49.540;8.364;2023-03-23T00:41:18;0.93;;;0.93;;
12519;SDS011;6325;49.540;8.364;2023-03-23T00:43:46;1.00;;;0.90;;
12519;SDS011;6325;49.540;8.364;2023-03-23T00:46:13;0.93;;;0.93;;
12519;SDS011;6325;49.540;8.364;2023-03-23T00:48:40;1.00;;;1.00;;
12519;SDS011;6325;49.540;8.364;2023-03-23T00:51:09;0.98;;;0.98;;
12519;SDS011;6325;49.540;8.364;2023-03-23T00:53:37;1.30;;;0.90;;
12519;SDS011;6325;49.540;8.364;2023-03-23T00:56:04;0.88;;;0.80;;
12519;SDS011;6325;49.540;8.364;2023-03-23T00:58:32;0.80;;;0.80;;
12519;SDS011;6325;49.540;8.364;2023-03-23T01:01:00;0.90;;;0.90;;
12519;SDS011;6325;49.540;8.364;2023-03-23T01:03:27;0.90;;;0.90;;
12519;SDS011;6325;49.540;8.364;2023-03-23T01:05:54;1.00;;;1.00;;
12519;SDS011;6325;49.540;8.364;2023-03-23T01:08:22;1.10;;;1.00;;
12519;SDS011;6325;49.540;8.364;2023-03-23T01:10:50;0.88;;;0.88;;
12519;SDS011;6325;49.540;8.364;2023-03-23T01:13:18;0.98;;;0.98;;
12519;SDS011;6325;49.540;8.364;2023-03-23T01:15:47;0.90;;;0.90;;
12519;SDS011;6325;49.540;8.364;2023-03-23T01:18:16;0.85;;;0.85;;
12519;SDS011;6325;49.540;8.364;2023-03-23T01:20:42;0.90;;;0.90;;
12519;SDS011;6325;49.540;8.364;2023-03-23T01:23:09;0.80;;;0.80;;
12519;SDS011;6325;49.540;8.364;2023-03-23T01:25:36;0.82;;;0.82;;
12519;SDS011;6325;49.540;8.364;2023-03-23T01:28:03;1.05;;;1.00;;
12519;SDS011;6325;49.540;8.364;2023-03-23T01:30:30;0.90;;;0.90;;
12519;SDS011;6325;49.540;8.364;2023-03-23T01:32:57;0.77;;;0.77;;
12519;SDS011;6325;49.540;8.364;2023-03-23T01:35:26;0.93;;;0.90;;
12519;SDS011;6325;49.540;8.364;2023-03-23T01:37:53;0.80;;;0.80;;
12519;SDS011;6325;49.540;8.364;2023-03-23T01:40:20;1.02;;;0.93;;
12519;SDS011;6325;49.540;8.364;2023-03-23T01:42:47;0.90;;;0.90;;
12519;SDS011;6325;49.540;8.364;2023-03-23T01:45:21;0.80;;;0.80;;
12519;SDS011;6325;49.540;8.364;2023-03-23T01:47:53;0.88;;;0.88;;
12519;SDS011;6325;49.540;8.364;2023-03-23T01:50:23;1.00;;;1.00;;
12519;SDS011;6325;49.540;8.364;2023-03-23T01:52:54;0.70;;;0.70;;
12519;SDS011;6325;49.540;8.364;2023-03-23T01:55:23;0.80;;;0.80;;
12519;SDS011;6325;49.540;8.364;2023-03-23T01:57:52;0.80;;;0.80;;
12519;SDS011;6325;49.540;8.364;2023-03-23T02:00:21;0.85;;;0.80;;
12519;SDS011;6325;49.540;8.364;2023-03-23T02:02:49;0.80;;;0.80;;
12519;SDS011;6325;49.540;8.364;2023-03-23T02:05:19;0.80;;;0.80;;
12519;SDS011;6325;49.540;8.364;2023-03-23T02:07:52;1.05;;;0.80;;
12519;SDS011;6325;49.540;8.364;2023-03-23T02:10:19;0.73;;;0.73;;
12519;SDS011;6325;49.540;8.364;2023-03-23T02:12:47;0.90;;;0.90;;
12519;SDS011;6325;49.540;8.364;2023-03-23T02:15:14;0.80;;;0.80;;
12519;SDS011;6325;49.540;8.364;2023-03-23T02:17:42;0.80;;;0.80;;
12519;SDS011;6325;49.540;8.364;2023-03-23T02:20:18;1.00;;;0.90;;
12519;SDS011;6325;49.540;8.364;2023-03-23T02:23:23;0.80;;;0.80;;
12519;SDS011;6325;49.540;8.364;2023-03-23T02:26:08;0.90;;;0.90;;
12519;SDS011;6325;49.540;8.364;2023-03-23T02:28:51;0.80;;;0.80;;
12519;SDS011;6325;49.540;8.364;2023-03-23T02:31:35;0.80;;;0.80;;
12519;SDS011;6325;49.540;8.364;2023-03-23T02:34:25;1.15;;;1.10;;
12519;SDS011;6325;49.540;8.364;2023-03-23T02:36:56;0.90;;;0.90;;
12519;SDS011;6325;49.540;8.364;2023-03-23T02:39:28;0.90;;;0.90;;
12519;SDS011;6325;49.540;8.364;2023-03-23T02:42:00;0.88;;;0.88;;
12519;SDS011;6325;49.540;8.364;2023-03-23T02:44:31;0.80;;;0.80;;
12519;SDS011;6325;49.540;8.364;2023-03-23T02:47:00;0.93;;;0.93;;
12519;SDS011;6325;49.540;8.364;2023-03-23T02:49:32;0.90;;;0.90;;
12519;SDS011;6325;49.540;8.364;2023-03-23T02:52:03;0.80;;;0.80;;
12519;SDS011;6325;49.540;8.364;2023-03-23T02:54:37;1.20;;;0.90;;
12519;SDS011;6325;49.540;8.364;2023-03-23T02:57:06;1.02;;;1.02;;
12519;SDS011;6325;49.540;8.364;2023-03-23T02:59:33;1.02;;;1.02;;
12519;SDS011;6325;49.540;8.364;2023-03-23T03:02:01;0.90;;;0.90;;
12519;SDS011;6325;49.540;8.364;2023-03-23T03:04:37;0.95;;;0.90;;
12519;SDS011;6325;49.540;8.364;2023-03-23T03:10:06;0.80;;;0.80;;
12519;SDS011;6325;49.540;8.364;2023-03-23T03:12:42;0.80;;;0.80;;
12519;SDS011;6325;49.540;8.364;2023-03-23T03:15:16;0.90;;;0.90;;
12519;SDS011;6325;49.540;8.364;2023-03-23T03:17:51;0.75;;;0.75;;
12519;SDS011;6325;49.540;8.364;2023-03-23T03:20:26;0.70;;;0.70;;
12519;SDS011;6325;49.540;8.364;2023-03-23T03:22:54;0.80;;;0.80;;
12519;SDS011;6325;49.540;8.364;2023-03-23T03:25:22;1.00;;;0.70;;
12519;SDS011;6325;49.540;8.364;2023-03-23T03:27:52;1.08;;;0.98;;
12519;SDS011;6325;49.540;8.364;2023-03-23T03:30:21;0.98;;;0.98;;
12519;SDS011;6325;49.540;8.364;2023-03-23T03:32:52;0.90;;;0.90;;
12519;SDS011;6325;49.540;8.364;2023-03-23T03:35:20;0.70;;;0.70;;
12519;SDS011;6325;49.540;8.364;2023-03-23T03:37:49;0.98;;;0.90;;
12519;SDS011;6325;49.540;8.364;2023-03-23T03:40:18;0.80;;;0.80;;
12519;SDS011;6325;49.540;8.364;2023-03-23T03:42:47;0.90;;;0.90;;
12519;SDS011;6325;49.540;8.364;2023-03-23T03:45:15;0.80;;;0.80;;
12519;SDS011;6325;49.540;8.364;2023-03-23T03:47:44;0.90;;;0.90;;
12519;SDS011;6325;49.540;8.364;2023-03-23T03:50:11;1.38;;;0.93;;
12519;SDS011;6325;49.540;8.364;2023-03-23T03:52:38;0.80;;;0.80;;
12519;SDS011;6325;49.540;8.364;2023-03-23T03:55:08;1.20;;;0.90;;
12519;SDS011;6325;49.540;8.364;2023-03-23T03:57:36;0.90;;;0.90;;
12519;SDS011;6325;49.540;8.364;2023-03-23T04:00:04;1.10;;;1.00;;
12519;SDS011;6325;49.540;8.364;2023-03-23T04:02:39;0.80;;;0.80;;
12519;SDS011;6325;49.540;8.364;2023-03-23T04:05:12;1.00;;;1.00;;
12519;SDS011;6325;49.540;8.364;2023-03-23T04:07:39;1.08;;;1.08;;
12519;SDS011;6325;49.540;8.364;2023-03-23T04:10:09;1.17;;;1.10;;
12519;SDS011;6325;49.540;8.364;2023-03-23T04:12:38;1.10;;;1.10;;
12519;SDS011;6325;49.540;8.364;2023-03-23T04:15:05;1.50;;;1.15;;
12519;SDS011;6325;49.540;8.364;2023-03-23T04:17:34;1.40;;;1.30;;
12519;SDS011;6325;49.540;8.364;2023-03-23T04:20:01;1.20;;;1.20;;
12519;SDS011;6325;49.540;8.364;2023-03-23T04:22:33;1.23;;;1.20;;
12519;SDS011;6325;49.540;8.364;2023-03-23T04:25:00;1.75;;;1.30;;
12519;SDS011;6325;49.540;8.364;2023-03-23T04:27:32;1.20;;;1.20;;
12519;SDS011;6325;49.540;8.364;2023-03-23T04:29:59;1.30;;;1.20;;
12519;SDS011;6325;49.540;8.364;2023-03-23T04:32:26;1.10;;;1.10;;
12519;SDS011;6325;49.540;8.364;2023-03-23T04:34:53;2.50;;;1.20;;
12519;SDS011;6325;49.540;8.364;2023-03-23T04:37:21;1.60;;;1.50;;
12519;SDS011;6325;49.540;8.364;2023-03-23T04:39:50;1.20;;;1.20;;
12519;SDS011;6325;49.540;8.364;2023-03-23T04:42:25;1.25;;;1.20;;
12519;SDS011;6325;49.540;8.364;2023-03-23T04:44:55;1.30;;;1.20;;
12519;SDS011;6325;49.540;8.364;2023-03-23T04:47:23;1.20;;;1.20;;
12519;SDS011;6325;49.540;8.364;2023-03-23T04:49:54;1.50;;;1.40;;
12519;SDS011;6325;49.540;8.364;2023-03-23T04:52:21;1.40;;;1.40;;
12519;SDS011;6325;49.540;8.364;2023-03-23T04:54:50;1.27;;;1.27;;
12519;SDS011;6325;49.540;8.364;2023-03-23T04:57:16;1.60;;;1.50;;
12519;SDS011;6325;49.540;8.364;2023-03-23T04:59:44;1.60;;;1.50;;
12519;SDS011;6325;49.540;8.364;2023-03-23T05:02:12;2.33;;;2.00;;
12519;SDS011;6325;49.540;8.364;2023-03-23T05:04:39;2.63;;;2.42;;
12519;SDS011;6325;49.540;8.364;2023-03-23T05:07:07;3.10;;;2.45;;
12519;SDS011;6325;49.540;8.364;2023-03-23T05:09:34;1.27;;;1.17;;
12519;SDS011;6325;49.540;8.364;2023-03-23T05:12:05;1.95;;;1.83;;
12519;SDS011;6325;49.540;8.364;2023-03-23T05:14:32;6.53;;;4.13;;
12519;SDS011;6325;49.540;8.364;2023-03-23T05:16:59;3.95;;;2.65;;
12519;SDS011;6325;49.540;8.364;2023-03-23T05:19:28;5.40;;;3.47;;
12519;SDS011;6325;49.540;8.364;2023-03-23T05:21:56;4.50;;;2.90;;
12519;SDS011;6325;49.540;8.364;2023-03-23T05:24:28;5.32;;;3.03;;
12519;SDS011;6325;49.540;8.364;2023-03-23T05:26:56;4.53;;;2.97;;
12519;SDS011;6325;49.540;8.364;2023-03-23T05:29:23;5.32;;;3.28;;
12519;SDS011;6325;49.540;8.364;2023-03-23T05:31:50;5.38;;;3.30;;
12519;SDS011;6325;49.540;8.364;2023-03-23T05:34:20;1.90;;;1.80;;
12519;SDS011;6325;49.540;8.364;2023-03-23T05:36:49;2.93;;;2.60;;
12519;SDS011;6325;49.540;8.364;2023-03-23T05:39:18;2.03;;;1.63;;
12519;SDS011;6325;49.540;8.364;2023-03-23T05:41:45;1.50;;;1.33;;
12519;SDS011;6325;49.540;8.364;2023-03-23T05:44:12;1.30;;;1.20;;
12519;SDS011;6325;49.540;8.364;2023-03-23T05:46:39;1.73;;;1.38;;
12519;SDS011;6325;49.540;8.364;2023-03-23T05:49:07;2.30;;;1.20;;
12519;SDS011;6325;49.540;8.364;2023-03-23T05:51:34;1.38;;;1.27;;
12519;SDS011;6325;49.540;8.364;2023-03-23T05:54:02;1.92;;;1.83;;
12519;SDS011;6325;49.540;8.364;2023-03-23T05:56:32;5.00;;;3.40;;
12519;SDS011;6325;49.540;8.364;2023-03-23T05:58:59;1.55;;;1.20;;
12519;SDS011;6325;49.540;8.364;2023-03-23T06:01:27;3.55;;;2.60;;
12519;SDS011;6325;49.540;8.364;2023-03-23T06:03:54;4.20;;;3.03;;
12519;SDS011;6325;49.540;8.364;2023-03-23T06:06:23;1.40;;;1.30;;
12519;SDS011;6325;49.540;8.364;2023-03-23T06:08:50;1.30;;;1.20;;
12519;SDS011;6325;49.540;8.364;2023-03-23T06:11:19;1.75;;;1.60;;
12519;SDS011;6325;49.540;8.364;2023-03-23T06:13:46;1.75;;;1.60;;
12519;SDS011;6325;49.540;8.364;2023-03-23T06:16:12;4.40;;;2.72;;
12519;SDS011;6325;49.540;8.364;2023-03-23T06:18:40;3.92;;;2.65;;
12519;SDS011;6325;49.540;8.364;2023-03-23T06:21:08;2.60;;;2.17;;
12519;SDS011;6325;49.540;8.364;2023-03-23T06:23:35;3.63;;;2.67;;
12519;SDS011;6325;49.540;8.364;2023-03-23T06:26:03;2.65;;;2.40;;
12519;SDS011;6325;49.540;8.364;2023-03-23T06:28:33;2.25;;;1.85;;
12519;SDS011;6325;49.540;8.364;2023-03-23T06:31:00;2.42;;;2.20;;
12519;SDS011;6325;49.540;8.364;2023-03-23T06:33:29;3.38;;;2.67;;
12519;SDS011;6325;49.540;8.364;2023-03-23T06:35:57;1.87;;;1.73;;
12519;SDS011;6325;49.540;8.364;2023-03-23T06:38:24;1.10;;;1.10;;
12519;SDS011;6325;49.540;8.364;2023-03-23T06:40:52;1.77;;;1.60;;
12519;SDS011;6325;49.540;8.364;2023-03-23T06:43:20;1.00;;;0.90;;
12519;SDS011;6325;49.540;8.364;2023-03-23T06:45:49;1.50;;;1.40;;
12519;SDS011;6325;49.540;8.364;2023-03-23T06:48:20;3.00;;;2.45;;
12519;SDS011;6325;49.540;8.364;2023-03-23T06:50:47;4.63;;;3.33;;
12519;SDS011;6325;49.540;8.364;2023-03-23T06:53:14;1.38;;;1.27;;
12519;SDS011;6325;49.540;8.364;2023-03-23T06:55:42;2.10;;;1.88;;
12519;SDS011;6325;49.540;8.364;2023-03-23T06:58:10;3.30;;;2.20;;
12519;SDS011;6325;49.540;8.364;2023-03-23T07:00:37;1.48;;;1.40;;
12519;SDS011;6325;49.540;8.364;2023-03-23T07:03:06;2.08;;;1.88;;
12519;SDS011;6325;49.540;8.364;2023-03-23T07:05:35;1.80;;;1.40;;
12519;SDS011;6325;49.540;8.364;2023-03-23T07:08:02;1.95;;;1.50;;
12519;SDS011;6325;49.540;8.364;2023-03-23T07:10:29;1.73;;;1.60;;
12519;SDS011;6325;49.540;8.364;2023-03-23T07:12:57;0.90;;;0.90;;
12519;SDS011;6325;49.540;8.364;2023-03-23T07:15:24;0.85;;;0.85;;
12519;SDS011;6325;49.540;8.364;2023-03-23T07:17:51;0.93;;;0.80;;
12519;SDS011;6325;49.540;8.364;2023-03-23T07:20:21;0.93;;;0.93;;
12519;SDS011;6325;49.540;8.364;2023-03-23T07:22:48;0.80;;;0.80;;
12519;SDS011;6325;49.540;8.364;2023-03-23T07:25:15;1.00;;;1.00;;
12519;SDS011;6325;49.540;8.364;2023-03-23T07:27:43;0.90;;;0.90;;
12519;SDS011;6325;49.540;8.364;2023-03-23T07:30:11;1.17;;;1.10;;
12519;SDS011;6325;49.540;8.364;2023-03-23T07:32:41;1.03;;;1.03;;
12519;SDS011;6325;49.540;8.364;2023-03-23T07:35:08;0.98;;;0.90;;
12519;SDS011;6325;49.540;8.364;2023-03-23T07:37:38;0.70;;;0.70;;
12519;SDS011;6325;49.540;8.364;2023-03-23T07:40:05;0.82;;;0.80;;
12519;SDS011;6325;49.540;8.364;2023-03-23T07:42:39;0.70;;;0.70;;
12519;SDS011;6325;49.540;8.364;2023-03-23T07:45:10;0.93;;;0.93;;
12519;SDS011;6325;49.540;8.364;2023-03-23T07:47:38;0.80;;;0.80;;
12519;SDS011;6325;49.540;8.364;2023-03-23T07:53:29;0.70;;;0.70;;
12519;SDS011;6325;49.540;8.364;2023-03-23T07:55:56;0.80;;;0.80;;
12519;SDS011;6325;49.540;8.364;2023-03-23T07:58:26;1.90;;;0.80;;
12519;SDS011;6325;49.540;8.364;2023-03-23T08:00:53;0.70;;;0.70;;
12519;SDS011;6325;49.540;8.364;2023-03-23T08:03:22;0.70;;;0.70;;
12519;SDS011;6325;49.540;8.364;2023-03-23T08:05:49;0.68;;;0.68;;
12519;SDS011;6325;49.540;8.364;2023-03-23T08:08:16;0.70;;;0.70;;
12519;SDS011;6325;49.540;8.364;2023-03-23T08:10:45;0.70;;;0.70;;
12519;SDS011;6325;49.540;8.364;2023-03-23T08:13:11;0.88;;;0.88;;
12519;SDS011;6325;49.540;8.364;2023-03-23T08:15:39;0.80;;;0.75;;
12519;SDS011;6325;49.540;8.364;2023-03-23T08:18:06;0.80;;;0.80;;
12519;SDS011;6325;49.540;8.364;2023-03-23T08:20:33;0.80;;;0.80;;
12519;SDS011;6325;49.540;8.364;2023-03-23T08:23:00;0.70;;;0.70;;
12519;SDS011;6325;49.540;8.364;2023-03-23T08:25:28;1.20;;;1.00;;
12519;SDS011;6325;49.540;8.364;2023-03-23T08:27:58;0.70;;;0.70;;
12519;SDS011;6325;49.540;8.364;2023-03-23T08:30:27;0.73;;;0.73;;
12519;SDS011;6325;49.540;8.364;2023-03-23T08:32:55;0.98;;;0.88;;
12519;SDS011;6325;49.540;8.364;2023-03-23T08:35:22;0.70;;;0.70;;
12519;SDS011;6325;49.540;8.364;2023-03-23T08:37:50;0.80;;;0.80;;
12519;SDS011;6325;49.540;8.364;2023-03-23T08:40:18;0.70;;;0.70;;
12519;SDS011;6325;49.540;8.364;2023-03-23T08:42:47;0.82;;;0.82;;
12519;SDS011;6325;49.540;8.364;2023-03-23T08:45:17;0.85;;;0.85;;
12519;SDS011;6325;49.540;8.364;2023-03-23T08:47:46;0.70;;;0.70;;
12519;SDS011;6325;49.540;8.364;2023-03-23T08:50:17;0.80;;;0.70;;
12519;SDS011;6325;49.540;8.364;2023-03-23T08:52:45;1.10;;;0.80;;
12519;SDS011;6325;49.540;8.364;2023-03-23T08:55:13;0.70;;;0.70;;
12519;SDS011;6325;49.540;8.364;2023-03-23T08:57:40;0.83;;;0.83;;
12519;SDS011;6325;49.540;8.364;2023-03-23T09:00:10;0.80;;;0.80;;
12519;SDS011;6325;49.540;8.364;2023-03-23T09:02:43;1.20;;;1.00;;
12519;SDS011;6325;49.540;8.364;2023-03-23T09:05:10;0.70;;;0.70;;
12519;SDS011;6325;49.540;8.364;2023-03-23T09:07:38;2.40;;;1.55;;
12519;SDS011;6325;49.540;8.364;2023-03-23T09:10:06;1.13;;;0.80;;
12519;SDS011;6325;49.540;8.364;2023-03-23T09:12:33;1.00;;;0.90;;
12519;SDS011;6325;49.540;8.364;2023-03-23T09:15:01;1.08;;;0.95;;
12519;SDS011;6325;49.540;8.364;2023-03-23T09:17:33;1.20;;;0.80;;
12519;SDS011;6325;49.540;8.364;2023-03-23T09:20:01;0.70;;;0.70;;
12519;SDS011;6325;49.540;8.364;2023-03-23T09:22:32;0.63;;;0.63;;
12519;SDS011;6325;49.540;8.364;2023-03-23T09:24:59;0.75;;;0.75;;
12519;SDS011;6325;49.540;8.364;2023-03-23T09:27:27;0.75;;;0.75;;
12519;SDS011;6325;49.540;8.364;2023-03-23T09:29:53;1.30;;;1.20;;
12519;SDS011;6325;49.540;8.364;2023-03-23T09:32:20;1.30;;;1.20;;
12519;SDS011;6325;49.540;8.364;2023-03-23T09:34:48;1.42;;;1.23;;
12519;SDS011;6325;49.540;8.364;2023-03-23T09:37:17;3.03;;;2.10;;
12519;SDS011;6325;49.540;8.364;2023-03-23T09:39:45;2.70;;;1.90;;
12519;SDS011;6325;49.540;8.364;2023-03-23T09:42:16;0.80;;;0.80;;
12519;SDS011;6325;49.540;8.364;2023-03-23T09:44:54;0.70;;;0.70;;
12519;SDS011;6325;49.540;8.364;2023-03-23T09:47:33;0.80;;;0.77;;
12519;SDS011;6325;49.540;8.364;2023-03-23T09:50:08;0.70;;;0.70;;
12519;SDS011;6325;49.540;8.364;2023-03-23T09:52:42;1.53;;;1.00;;
12519;SDS011;6325;49.540;8.364;2023-03-23T09:55:13;1.45;;;1.17;;
12519;SDS011;6325;49.540;8.364;2023-03-23T09:57:44;0.80;;;0.80;;
12519;SDS011;6325;49.540;8.364;2023-03-23T10:00:18;0.80;;;0.80;;
12519;SDS011;6325;49.540;8.364;2023-03-23T10:02:52;1.20;;;0.80;;
12519;SDS011;6325;49.540;8.364;2023-03-23T10:05:29;0.80;;;0.80;;
12519;SDS011;6325;49.540;8.364;2023-03-23T10:08:00;0.70;;;0.70;;
12519;SDS011;6325;49.540;8.364;2023-03-23T10:10:31;0.98;;;0.80;;
12519;SDS011;6325;49.540;8.364;2023-03-23T10:13:04;0.75;;;0.75;;
12519;SDS011;6325;49.540;8.364;2023-03-23T10:15:41;0.85;;;0.85;;
12519;SDS011;6325;49.540;8.364;2023-03-23T10:18:10;0.80;;;0.80;;
12519;SDS011;6325;49.540;8.364;2023-03-23T10:20:42;0.93;;;0.90;;
12519;SDS011;6325;49.540;8.364;2023-03-23T10:23:20;0.80;;;0.80;;
12519;SDS011;6325;49.540;8.364;2023-03-23T10:26:04;0.70;;;0.70;;
12519;SDS011;6325;49.540;8.364;2023-03-23T10:28:36;0.80;;;0.70;;
12519;SDS011;6325;49.540;8.364;2023-03-23T10:31:07;1.50;;;0.80;;
12519;SDS011;6325;49.540;8.364;2023-03-23T10:33:39;0.80;;;0.80;;
12519;SDS011;6325;49.540;8.364;2023-03-23T10:36:10;0.60;;;0.60;;
12519;SDS011;6325;49.540;8.364;2023-03-23T10:38:43;0.80;;;0.80;;
12519;SDS011;6325;49.540;8.364;2023-03-23T10:41:14;0.65;;;0.65;;
12519;SDS011;6325;49.540;8.364;2023-03-23T10:43:43;0.80;;;0.80;;
12519;SDS011;6325;49.540;8.364;2023-03-23T10:46:16;0.87;;;0.87;;
12519;SDS011;6325;49.540;8.364;2023-03-23T10:48:51;0.80;;;0.80;;
12519;SDS011;6325;49.540;8.364;2023-03-23T10:51:21;0.60;;;0.60;;
12519;SDS011;6325;49.540;8.364;2023-03-23T10:53:58;0.65;;;0.65;;
12519;SDS011;6325;49.540;8.364;2023-03-23T10:56:29;0.70;;;0.70;;
12519;SDS011;6325;49.540;8.364;2023-03-23T10:59:10;0.60;;;0.60;;
12519;SDS011;6325;49.540;8.364;2023-03-23T11:01:38;0.60;;;0.60;;
12519;SDS011;6325;49.540;8.364;2023-03-23T11:04:10;0.60;;;0.60;;
12519;SDS011;6325;49.540;8.364;2023-03-23T11:06:42;0.63;;;0.63;;
12519;SDS011;6325;49.540;8.364;2023-03-23T11:09:13;0.68;;;0.68;;
12519;SDS011;6325;49.540;8.364;2023-03-23T11:11:43;0.60;;;0.60;;
12519;SDS011;6325;49.540;8.364;2023-03-23T11:14:15;0.60;;;0.60;;
12519;SDS011;6325;49.540;8.364;2023-03-23T11:16:44;0.75;;;0.75;;
12519;SDS011;6325;49.540;8.364;2023-03-23T11:19:20;0.70;;;0.70;;
12519;SDS011;6325;49.540;8.364;2023-03-23T11:21:52;0.60;;;0.60;;
12519;SDS011;6325;49.540;8.364;2023-03-23T11:24:23;0.73;;;0.73;;
12519;SDS011;6325;49.540;8.364;2023-03-23T11:26:51;0.80;;;0.80;;
12519;SDS011;6325;49.540;8.364;2023-03-23T11:29:20;0.80;;;0.77;;
12519;SDS011;6325;49.540;8.364;2023-03-23T11:31:50;0.83;;;0.83;;
12519;SDS011;6325;49.540;8.364;2023-03-23T11:34:19;0.75;;;0.75;;
12519;SDS011;6325;49.540;8.364;2023-03-23T11:36:48;0.70;;;0.70;;
12519;SDS011;6325;49.540;8.364;2023-03-23T11:39:20;0.70;;;0.70;;
12519;SDS011;6325;49.540;8.364;2023-03-23T11:41:51;0.60;;;0.60;;
12519;SDS011;6325;49.540;8.364;2023-03-23T11:44:20;0.70;;;0.70;;
12519;SDS011;6325;49.540;8.364;2023-03-23T11:46:49;0.55;;;0.55;;
12519;SDS011;6325;49.540;8.364;2023-03-23T11:49:25;0.60;;;0.60;;
12519;SDS011;6325;49.540;8.364;2023-03-23T11:52:03;0.60;;;0.60;;
12519;SDS011;6325;49.540;8.364;2023-03-23T11:54:37;0.50;;;0.50;;
12519;SDS011;6325;49.540;8.364;2023-03-23T11:57:10;0.52;;;0.52;;
12519;SDS011;6325;49.540;8.364;2023-03-23T11:59:38;0.50;;;0.50;;
12519;SDS011;6325;49.540;8.364;2023-03-23T12:02:13;0.57;;;0.57;;
12519;SDS011;6325;49.540;8.364;2023-03-23T12:04:57;0.70;;;0.70;;
12519;SDS011;6325;49.540;8.364;2023-03-23T12:07:56;0.50;;;0.50;;
12519;SDS011;6325;49.540;8.364;2023-03-23T12:10:37;0.40;;;0.40;;
12519;SDS011;6325;49.540;8.364;2023-03-23T12:13:13;0.50;;;0.50;;
12519;SDS011;6325;49.540;8.364;2023-03-23T12:15:49;0.50;;;0.50;;
12519;SDS011;6325;49.540;8.364;2023-03-23T12:18:24;0.53;;;0.53;;
12519;SDS011;6325;49.540;8.364;2023-03-23T12:20:58;0.55;;;0.55;;
12519;SDS011;6325;49.540;8.364;2023-03-23T12:23:36;0.60;;;0.60;;
12519;SDS011;6325;49.540;8.364;2023-03-23T12:26:12;0.57;;;0.57;;
12519;SDS011;6325;49.540;8.364;2023-03-23T12:31:56;0.60;;;0.60;;
12519;SDS011;6325;49.540;8.364;2023-03-23T12:34:36;0.90;;;0.50;;
12519;SDS011;6325;49.540;8.364;2023-03-23T12:37:19;0.50;;;0.50;;
12519;SDS011;6325;49.540;8.364;2023-03-23T12:40:03;0.50;;;0.50;;
12519;SDS011;6325;49.540;8.364;2023-03-23T12:42:48;0.50;;;0.50;;
12519;SDS011;6325;49.540;8.364;2023-03-23T12:45:25;0.70;;;0.60;;
12519;SDS011;6325;49.540;8.364;2023-03-23T12:48:08;0.50;;;0.50;;
12519;SDS011;6325;49.540;8.364;2023-03-23T12:50:40;0.50;;;0.50;;
12519;SDS011;6325;49.540;8.364;2023-03-23T12:53:10;0.60;;;0.60;;
12519;SDS011;6325;49.540;8.364;2023-03-23T12:55:42;0.50;;;0.50;;
12519;SDS011;6325;49.540;8.364;2023-03-23T12:58:15;0.50;;;0.50;;
12519;SDS011;6325;49.540;8.364;2023-03-23T13:00:50;0.40;;;0.40;;
12519;SDS011;6325;49.540;8.364;2023-03-23T13:03:24;0.50;;;0.50;;
12519;SDS011;6325;49.540;8.364;2023-03-23T13:05:57;0.60;;;0.60;;
12519;SDS011;6325;49.540;8.364;2023-03-23T13:08:30;0.50;;;0.50;;
12519;SDS011;6325;49.540;8.364;2023-03-23T13:11:02;0.55;;;0.55;;
12519;SDS011;6325;49.540;8.364;2023-03-23T13:13:41;1.10;;;0.55;;
12519;SDS011;6325;49.540;8.364;2023-03-23T13:16:14;0.50;;;0.50;;
12519;SDS011;6325;49.540;8.364;2023-03-23T13:18:49;0.70;;;0.50;;
12519;SDS011;6325;49.540;8.364;2023-03-23T13:21:27;0.50;;;0.50;;
12519;SDS011;6325;49.540;8.364;2023-03-23T13:23:57;0.45;;;0.45;;
12519;SDS011;6325;49.540;8.364;2023-03-23T13:26:28;0.50;;;0.50;;
12519;SDS011;6325;49.540;8.364;2023-03-23T13:28:58;0.52;;;0.52;;
12519;SDS011;6325;49.540;8.364;2023-03-23T13:31:29;0.50;;;0.50;;
12519;SDS011;6325;49.540;8.364;2023-03-23T13:33:59;0.50;;;0.50;;
12519;SDS011;6325;49.540;8.364;2023-03-23T13:36:29;1.15;;;0.60;;
12519;SDS011;6325;49.540;8.364;2023-03-23T13:38:58;0.50;;;0.50;;
12519;SDS011;6325;49.540;8.364;2023-03-23T13:41:27;0.60;;;0.60;;
12519;SDS011;6325;49.540;8.364;2023-03-23T13:44:05;0.60;;;0.60;;
12519;SDS011;6325;49.540;8.364;2023-03-23T13:46:52;0.50;;;0.50;;
12519;SDS011;6325;49.540;8.364;2023-03-23T13:49:21;0.50;;;0.50;;
12519;SDS011;6325;49.540;8.364;2023-03-23T13:51:59;0.60;;;0.60;;
12519;SDS011;6325;49.540;8.364;2023-03-23T13:54:38;0.57;;;0.57;;
12519;SDS011;6325;49.540;8.364;2023-03-23T14:00:09;0.70;;;0.70;;
12519;SDS011;6325;49.540;8.364;2023-03-23T14:03:00;0.60;;;0.60;;
12519;SDS011;6325;49.540;8.364;2023-03-23T14:05:32;0.70;;;0.70;;
12519;SDS011;6325;49.540;8.364;2023-03-23T14:08:02;0.60;;;0.60;;
12519;SDS011;6325;49.540;8.364;2023-03-23T14:10:38;0.70;;;0.70;;
12519;SDS011;6325;49.540;8.364;2023-03-23T14:13:10;0.70;;;0.70;;
12519;SDS011;6325;49.540;8.364;2023-03-23T14:15:44;0.80;;;0.80;;
12519;SDS011;6325;49.540;8.364;2023-03-23T14:18:20;0.65;;;0.65;;
12519;SDS011;6325;49.540;8.364;2023-03-23T14:20:49;0.70;;;0.70;;
12519;SDS011;6325;49.540;8.364;2023-03-23T14:23:17;0.70;;;0.68;;
12519;SDS011;6325;49.540;8.364;2023-03-23T14:25:54;0.60;;;0.60;;
12519;SDS011;6325;49.540;8.364;2023-03-23T14:28:23;0.70;;;0.70;;
12519;SDS011;6325;49.540;8.364;2023-03-23T14:30:54;0.65;;;0.65;;
12519;SDS011;6325;49.540;8.364;2023-03-23T14:33:22;0.80;;;0.80;;
12519;SDS011;6325;49.540;8.364;2023-03-23T14:35:52;0.80;;;0.80;;
12519;SDS011;6325;49.540;8.364;2023-03-23T14:38:21;0.70;;;0.70;;
12519;SDS011;6325;49.540;8.364;2023-03-23T14:40:51;0.70;;;0.70;;
12519;SDS011;6325;49.540;8.364;2023-03-23T14:43:19;0.70;;;0.70;;
12519;SDS011;6325;49.540;8.364;2023-03-23T14:45:52;0.70;;;0.70;;
12519;SDS011;6325;49.540;8.364;2023-03-23T14:48:22;0.70;;;0.70;;
12519;SDS011;6325;49.540;8.364;2023-03-23T14:50:49;0.77;;;0.77;;
12519;SDS011;6325;49.540;8.364;2023-03-23T14:53:19;0.70;;;0.70;;
12519;SDS011;6325;49.540;8.364;2023-03-23T14:55:49;0.70;;;0.70;;
12519;SDS011;6325;49.540;8.364;2023-03-23T14:58:19;0.57;;;0.57;;
12519;SDS011;6325;49.540;8.364;2023-03-23T15:00:49;0.73;;;0.73;;
12519;SDS011;6325;49.540;8.364;2023-03-23T15:03:22;0.77;;;0.70;;
12519;SDS011;6325;49.540;8.364;2023-03-23T15:05:51;0.70;;;0.70;;
12519;SDS011;6325;49.540;8.364;2023-03-23T15:08:23;0.77;;;0.70;;
12519;SDS011;6325;49.540;8.364;2023-03-23T15:11:03;0.70;;;0.70;;
12519;SDS011;6325;49.540;8.364;2023-03-23T15:13:33;0.60;;;0.60;;
12519;SDS011;6325;49.540;8.364;2023-03-23T15:16:01;0.77;;;0.75;;
12519;SDS011;6325;49.540;8.364;2023-03-23T15:18:33;0.80;;;0.80;;
12519;SDS011;6325;49.540;8.364;2023-03-23T15:21:09;0.80;;;0.80;;
12519;SDS011;6325;49.540;8.364;2023-03-23T15:23:41;0.80;;;0.80;;
12519;SDS011;6325;49.540;8.364;2023-03-23T15:26:17;0.60;;;0.60;;
12519;SDS011;6325;49.540;8.364;2023-03-23T15:29:11;0.80;;;0.80;;
12519;SDS011;6325;49.540;8.364;2023-03-23T15:31:42;0.90;;;0.90;;
12519;SDS011;6325;49.540;8.364;2023-03-23T15:34:15;1.43;;;1.30;;